Pure Adrenalin — VJD3680 — position and weather

sailwx.info

Track history (hours):
 
Tides and Currents Weather Stations Pressure Air Temp Water Temp Dewpoint Dewpoint Depression Visibility Wind Speed Wind Dir Waves Ship Positions

Pure Adrenalin

Last reported at 2014-Oct-31 12:04 UTC. Time now 2014-Nov-01 03:28 UTC.
Position S 12°28' E 130°51'.

Length 21 m.

Type: Ship. MMSI: 503642100.

Date/timePositionNaut miles runAvg speedWind from/ knotsBaromVisibWave heightAir tempDewpointWater temp
2014-Oct-31 12:04S 12°28' E 130°51'1 0.0
2014-Oct-30 08:17S 12°28' E 130°50'1 0.3
2014-Oct-30 03:33S 12°28' E 130°51'0 0.0
2014-Oct-28 09:12S 12°28' E 130°51'1 0.8
2014-Oct-28 08:19S 12°28' E 130°51'24 1.2
2014-Oct-27 12:31S 12°22' E 130°27'24 8.1
2014-Oct-27 09:33S 12°28' E 130°51'1 0.1
2014-Oct-26 19:15S 12°28' E 130°51'1 0.0
2014-Oct-26 02:16S 12°29' E 130°50'1 0.1
2014-Oct-25 20:33S 12°28' E 130°51'0 0.0
2014-Oct-25 19:27S 12°28' E 130°51'0 0.0
2014-Oct-25 18:15S 12°28' E 130°51'0 0.0
2014-Oct-25 17:33S 12°28' E 130°51'0 0.0
2014-Oct-25 16:33S 12°28' E 130°51'0 0.0
2014-Oct-25 15:33S 12°28' E 130°51'0 0.0
2014-Oct-25 14:33S 12°28' E 130°51'0 0.0
2014-Oct-25 13:33S 12°28' E 130°51'0 0.0
2014-Oct-25 11:33S 12°28' E 130°51'0 0.0
2014-Oct-25 10:33S 12°28' E 130°51'0 0.0
2014-Oct-25 09:21S 12°28' E 130°51'0 0.0
2014-Oct-24 19:09S 12°28' E 130°51'0 0.0
2014-Oct-24 17:33S 12°28' E 130°51'0 0.0
2014-Oct-24 16:33S 12°28' E 130°51'0 0.0
2014-Oct-24 15:27S 12°28' E 130°51'0 0.0
2014-Oct-24 14:09S 12°28' E 130°51'0 0.0
2014-Oct-24 13:33S 12°28' E 130°51'0 0.0
2014-Oct-24 12:33S 12°28' E 130°51'0 0.0
2014-Oct-24 10:33S 12°28' E 130°51'0 0.0
2014-Oct-24 08:14S 12°28' E 130°51'1 0.9
2014-Oct-24 07:30S 12°28' E 130°51'0 0.0
2014-Oct-24 06:30S 12°28' E 130°51'0 0.0
2014-Oct-24 04:33S 12°28' E 130°51'0 0.0
2014-Oct-24 03:24S 12°28' E 130°51'0 0.0
2014-Oct-24 02:30S 12°28' E 130°51'0 0.0
2014-Oct-24 01:30S 12°28' E 130°51'0 0.0
2014-Oct-24 00:30S 12°28' E 130°51'0 0.0
2014-Oct-23 23:30S 12°28' E 130°51'0 0.0
2014-Oct-23 22:06S 12°28' E 130°51'0 0.0
2014-Oct-23 21:30S 12°28' E 130°51'0 0.1
2014-Oct-23 20:31S 12°28' E 130°51'1 0.9
2014-Oct-23 19:33S 12°28' E 130°51'1717.4
2014-Oct-23 18:33S 12°22' E 130°34'8 1.0
2014-Oct-23 10:33S 12°23' E 130°26'1716.6
2014-Oct-23 09:33S 12°23' E 130°43'9 8.2
2014-Oct-23 08:27S 12°28' E 130°51'1 0.1
2014-Oct-22 21:31S 12°28' E 130°51'1 0.7
2014-Oct-22 20:25S 12°28' E 130°51'6 7.5
2014-Oct-22 19:33S 12°24' E 130°46'1818.2
2014-Oct-22 18:33S 12°23' E 130°27'3 0.3
2014-Oct-22 10:33S 12°22' E 130°30'1818.1
2014-Oct-22 09:33S 12°27' E 130°48'2 0.2
2014-Oct-21 21:09S 12°28' E 130°49'2 2.5
2014-Oct-21 20:33S 12°28' E 130°51'2712.8
2014-Oct-21 18:28S 12°23' E 130°24'4 0.8
2014-Oct-21 13:10S 12°23' E 130°19'1016.6
2014-Oct-21 12:33S 12°22' E 130°30'  
Track history (hours):
 
Tides and Currents Weather Stations Pressure Air Temp Water Temp Dewpoint Dewpoint Depression Visibility Wind Speed Wind Dir Waves Ship Positions

Pure Adrenalin

Last reported at 2014-Oct-31 12:04 UTC. Time now 2014-Nov-01 03:28 UTC.
Position S 12°28' E 130°51'.

Length 21 m.

Type: Ship. MMSI: 503642100.

Date/timePositionNaut miles runAvg speedWind from/ knotsBaromVisibWave heightAir tempDewpointWater temp
2014-Oct-31 12:04S 12°28' E 130°51'1 0.0
2014-Oct-30 08:17S 12°28' E 130°50'1 0.3
2014-Oct-30 03:33S 12°28' E 130°51'0 0.0
2014-Oct-28 09:12S 12°28' E 130°51'1 0.8
2014-Oct-28 08:19S 12°28' E 130°51'24 1.2
2014-Oct-27 12:31S 12°22' E 130°27'24 8.1
2014-Oct-27 09:33S 12°28' E 130°51'1 0.1
2014-Oct-26 19:15S 12°28' E 130°51'1 0.0
2014-Oct-26 02:16S 12°29' E 130°50'1 0.1
2014-Oct-25 20:33S 12°28' E 130°51'0 0.0
2014-Oct-25 19:27S 12°28' E 130°51'0 0.0
2014-Oct-25 18:15S 12°28' E 130°51'0 0.0
2014-Oct-25 17:33S 12°28' E 130°51'0 0.0
2014-Oct-25 16:33S 12°28' E 130°51'0 0.0
2014-Oct-25 15:33S 12°28' E 130°51'0 0.0
2014-Oct-25 14:33S 12°28' E 130°51'0 0.0
2014-Oct-25 13:33S 12°28' E 130°51'0 0.0
2014-Oct-25 11:33S 12°28' E 130°51'0 0.0
2014-Oct-25 10:33S 12°28' E 130°51'0 0.0
2014-Oct-25 09:21S 12°28' E 130°51'0 0.0
2014-Oct-24 19:09S 12°28' E 130°51'0 0.0
2014-Oct-24 17:33S 12°28' E 130°51'0 0.0
2014-Oct-24 16:33S 12°28' E 130°51'0 0.0
2014-Oct-24 15:27S 12°28' E 130°51'0 0.0
2014-Oct-24 14:09S 12°28' E 130°51'0 0.0
2014-Oct-24 13:33S 12°28' E 130°51'0 0.0
2014-Oct-24 12:33S 12°28' E 130°51'0 0.0
2014-Oct-24 10:33S 12°28' E 130°51'0 0.0
2014-Oct-24 08:14S 12°28' E 130°51'1 0.9
2014-Oct-24 07:30S 12°28' E 130°51'0 0.0
2014-Oct-24 06:30S 12°28' E 130°51'0 0.0
2014-Oct-24 04:33S 12°28' E 130°51'0 0.0
2014-Oct-24 03:24S 12°28' E 130°51'0 0.0
2014-Oct-24 02:30S 12°28' E 130°51'0 0.0
2014-Oct-24 01:30S 12°28' E 130°51'0 0.0
2014-Oct-24 00:30S 12°28' E 130°51'0 0.0
2014-Oct-23 23:30S 12°28' E 130°51'0 0.0
2014-Oct-23 22:06S 12°28' E 130°51'0 0.0
2014-Oct-23 21:30S 12°28' E 130°51'0 0.1
2014-Oct-23 20:31S 12°28' E 130°51'1 0.9
2014-Oct-23 19:33S 12°28' E 130°51'1717.4
2014-Oct-23 18:33S 12°22' E 130°34'8 1.0
2014-Oct-23 10:33S 12°23' E 130°26'1716.6
2014-Oct-23 09:33S 12°23' E 130°43'9 8.2
2014-Oct-23 08:27S 12°28' E 130°51'1 0.1
2014-Oct-22 21:31S 12°28' E 130°51'1 0.7
2014-Oct-22 20:25S 12°28' E 130°51'6 7.5
2014-Oct-22 19:33S 12°24' E 130°46'1818.2
2014-Oct-22 18:33S 12°23' E 130°27'3 0.3
2014-Oct-22 10:33S 12°22' E 130°30'1818.1
2014-Oct-22 09:33S 12°27' E 130°48'2 0.2
2014-Oct-21 21:09S 12°28' E 130°49'2 2.5
2014-Oct-21 20:33S 12°28' E 130°51'2712.8
2014-Oct-21 18:28S 12°23' E 130°24'4 0.8
2014-Oct-21 13:10S 12°23' E 130°19'1016.6
2014-Oct-21 12:33S 12°22' E 130°30'  

Dump ship's entire track history